EZS48AX LICC-LSGG
Flight info
| Callsign | EZS48AX |
|---|---|
| Flight time | N/A |
| Altitude | 38000 |
| Route | BUDIN DCT NERAR DCT TAGEL DCT LUNAK DCT KARDU DCT IDONA DCT TONDA/N0403F280 DCT PIMOT/N0367F220 DCT AOSTA L615 BANKO |
| Aircraft | A320/M-SDE3FGHIRWY/LB1 |
Departure
| Time | 2026-04-29 06:29 |
|---|---|
| Airport | Catania-Fontanarossa Airport (LICC) |
Arrival
| Time | N/A |
|---|---|
| Airport | Geneva International Airport (LSGG) |
| Time | Latitude | Longitude | Altitude | Speed | Heading |
|---|---|---|---|---|---|
| 2026-04-29 06:20 | 37.46824 | 15.06395 | 46 ft | 3 kts | 81° |
| 2026-04-29 06:20 | 37.46823 | 15.06391 | 46 ft | 0 kts | 84° |
| 2026-04-29 06:22 | 37.46825 | 15.06423 | 48 ft | 7 kts | 84° |
| 2026-04-29 06:23 | 37.46833 | 15.06513 | 51 ft | 13 kts | 82° |
| 2026-04-29 06:23 | 37.46845 | 15.06652 | 51 ft | 17 kts | 84° |
| 2026-04-29 06:23 | 37.46858 | 15.06797 | 51 ft | 16 kts | 84° |
| 2026-04-29 06:23 | 37.46869 | 15.06936 | 51 ft | 15 kts | 84° |
| 2026-04-29 06:24 | 37.46879 | 15.07064 | 51 ft | 14 kts | 84° |
| 2026-04-29 06:24 | 37.46890 | 15.07180 | 51 ft | 13 kts | 84° |
| 2026-04-29 06:24 | 37.46899 | 15.07285 | 51 ft | 11 kts | 83° |
| 2026-04-29 06:24 | 37.46907 | 15.07380 | 51 ft | 10 kts | 84° |
| 2026-04-29 06:25 | 37.46914 | 15.07465 | 51 ft | 9 kts | 84° |
| 2026-04-29 06:25 | 37.46921 | 15.07541 | 51 ft | 8 kts | 84° |
| 2026-04-29 06:25 | 37.46927 | 15.07609 | 51 ft | 7 kts | 83° |
| 2026-04-29 06:25 | 37.46932 | 15.07669 | 52 ft | 6 kts | 83° |
| 2026-04-29 06:26 | 37.46937 | 15.07722 | 51 ft | 6 kts | 83° |
| 2026-04-29 06:26 | 37.46941 | 15.07766 | 51 ft | 5 kts | 83° |
| 2026-04-29 06:26 | 37.46947 | 15.07826 | 51 ft | 10 kts | 83° |
| 2026-04-29 06:26 | 37.46958 | 15.07951 | 51 ft | 18 kts | 83° |
| 2026-04-29 06:27 | 37.46939 | 15.08063 | 50 ft | 10 kts | 125° |
| 2026-04-29 06:27 | 37.46886 | 15.08093 | 51 ft | 7 kts | 176° |
| 2026-04-29 06:27 | 37.46840 | 15.08091 | 51 ft | 6 kts | 186° |
| 2026-04-29 06:27 | 37.46810 | 15.08071 | 51 ft | 4 kts | 222° |
| 2026-04-29 06:28 | 37.46796 | 15.08041 | 51 ft | 6 kts | 253° |
| 2026-04-29 06:28 | 37.46789 | 15.07952 | 51 ft | 15 kts | 264° |
| 2026-04-29 06:28 | 37.46751 | 15.07526 | 52 ft | 85 kts | 264° |
| 2026-04-29 06:28 | 37.46667 | 15.06535 | 53 ft | 141 kts | 263° |
| 2026-04-29 06:29 | 37.46541 | 15.05154 | 273 ft | 166 kts | 263° |
| 2026-04-29 06:29 | 37.46430 | 15.03712 | 939 ft | 164 kts | 264° |
| 2026-04-29 06:29 | 37.46324 | 15.02285 | 1506 ft | 170 kts | 264° |
| 2026-04-29 06:29 | 37.46201 | 15.00700 | 1842 ft | 193 kts | 264° |
| 2026-04-29 06:30 | 37.46057 | 14.98924 | 2196 ft | 215 kts | 263° |
| 2026-04-29 06:30 | 37.45720 | 14.94897 | 3431 ft | 240 kts | 263° |
| 2026-04-29 06:30 | 37.45540 | 14.92792 | 4310 ft | 244 kts | 263° |
| 2026-04-29 06:31 | 37.45356 | 14.90660 | 5167 ft | 247 kts | 263° |
| 2026-04-29 06:31 | 37.45168 | 14.88508 | 6004 ft | 250 kts | 263° |
| 2026-04-29 06:31 | 37.44977 | 14.86309 | 6859 ft | 253 kts | 263° |
| 2026-04-29 06:31 | 37.44784 | 14.84097 | 7671 ft | 256 kts | 263° |
| 2026-04-29 06:32 | 37.44587 | 14.81852 | 8492 ft | 259 kts | 263° |
| 2026-04-29 06:32 | 37.44406 | 14.79579 | 9283 ft | 263 kts | 269° |
| 2026-04-29 06:32 | 37.44828 | 14.77346 | 10010 ft | 268 kts | 301° |
| 2026-04-29 06:32 | 37.46162 | 14.75733 | 10724 ft | 272 kts | 334° |
| 2026-04-29 06:33 | 37.48006 | 14.75161 | 11443 ft | 276 kts | 353° |
| 2026-04-29 06:33 | 37.49925 | 14.74897 | 12181 ft | 279 kts | 354° |
| 2026-04-29 06:33 | 37.51367 | 14.74713 | 12711 ft | 281 kts | 354° |
| 2026-04-29 06:33 | 37.53266 | 14.74475 | 13388 ft | 284 kts | 354° |
| 2026-04-29 06:34 | 37.55254 | 14.74222 | 13902 ft | 296 kts | 354° |
| 2026-04-29 06:34 | 37.57385 | 14.73943 | 14115 ft | 319 kts | 353° |
| 2026-04-29 06:34 | 37.59672 | 14.73638 | 14297 ft | 343 kts | 353° |
| 2026-04-29 06:34 | 37.62101 | 14.73309 | 14705 ft | 356 kts | 353° |
| 2026-04-29 06:35 | 37.64585 | 14.72969 | 15320 ft | 361 kts | 353° |
| 2026-04-29 06:35 | 37.67098 | 14.72626 | 16004 ft | 365 kts | 353° |
| 2026-04-29 06:35 | 37.69640 | 14.72279 | 16628 ft | 369 kts | 353° |
| 2026-04-29 06:35 | 37.72202 | 14.71933 | 17229 ft | 372 kts | 353° |
| 2026-04-29 06:36 | 37.74791 | 14.71586 | 17843 ft | 376 kts | 353° |
| 2026-04-29 06:36 | 37.77404 | 14.71236 | 18483 ft | 379 kts | 353° |
| 2026-04-29 06:36 | 37.80043 | 14.70878 | 19088 ft | 383 kts | 353° |
| 2026-04-29 06:36 | 37.82704 | 14.70514 | 19659 ft | 386 kts | 353° |
| 2026-04-29 06:37 | 37.85381 | 14.70147 | 20256 ft | 390 kts | 353° |
| 2026-04-29 06:37 | 37.88094 | 14.69773 | 20827 ft | 393 kts | 353° |
| 2026-04-29 06:37 | 37.90840 | 14.69570 | 21368 ft | 397 kts | 2° |
| 2026-04-29 06:37 | 37.93596 | 14.70007 | 21903 ft | 400 kts | 13° |
| 2026-04-29 06:38 | 37.96253 | 14.71101 | 22403 ft | 403 kts | 24° |
| 2026-04-29 06:38 | 37.98739 | 14.72775 | 22881 ft | 406 kts | 30° |
| 2026-04-29 06:38 | 38.00606 | 14.74124 | 23247 ft | 409 kts | 30° |
| 2026-04-29 06:38 | 38.03093 | 14.75910 | 23718 ft | 412 kts | 29° |
| 2026-04-29 06:39 | 38.04744 | 14.77089 | 24019 ft | 414 kts | 29° |